Time;durP1;ratioP1;P1;durP2;ratioP2;P2;SDS_P1;SDS_P2;PMS_P1;PMS_P2;Temp;Humidity;BMP_temperature;BMP_pressure;BME280_temperature;BME280_humidity;BME280_pressure;Samples;Min_cycle;Max_cycle;Signal;HPM_P1;HPM_P2
2021/12/04 00:02:06;;;;;;;11.35;4.28;;;;;;;20.23;12.22;97575.09;5018323;28;20030;-77
2021/12/04 00:04:46;;;;;;;9.93;3.45;;;;;;;19.97;11.85;97569.06;5022004;28;20770;-77
2021/12/04 00:07:12;;;;;;;8.57;3.63;;;;;;;19.93;11.62;97567.50;5019594;28;20025;-77
2021/12/04 00:09:39;;;;;;;12.63;4.28;;;;;;;20.02;11.83;97568.56;5018834;28;21064;-77
2021/12/04 00:12:07;;;;;;;13.27;4.20;;;;;;;19.74;11.90;97563.38;5019964;28;20473;-77
2021/12/04 00:14:36;;;;;;;10.65;3.50;;;;;;;19.42;11.99;97562.97;5018754;28;20042;-76
2021/12/04 00:17:04;;;;;;;10.30;3.60;;;;;;;19.53;11.75;97560.88;5018473;28;22064;-76
2021/12/04 00:19:30;;;;;;;11.80;4.07;;;;;;;19.57;11.86;97566.38;5021636;28;20045;-77
2021/12/04 00:21:57;;;;;;;14.23;4.00;;;;;;;19.78;12.02;97571.69;5019325;28;20528;-77
2021/12/04 00:24:24;;;;;;;8.65;3.50;;;;;;;19.88;11.62;97588.25;5018966;28;20038;-77
2021/12/04 00:26:51;;;;;;;11.32;3.33;;;;;;;19.99;11.56;97575.00;5019096;28;20034;-76
2021/12/04 00:29:17;;;;;;;9.45;4.22;;;;;;;20.03;11.51;97563.78;5019343;28;20187;-77
2021/12/04 00:31:49;;;;;;;13.73;4.07;;;;;;;19.80;11.57;97564.50;5018367;28;20049;-77
2021/12/04 00:34:18;;;;;;;10.95;4.00;;;;;;;19.72;11.70;97553.88;5017365;28;20029;-77
2021/12/04 00:50:11;;;;;;;8.73;3.10;;;;;;;19.17;12.17;97577.13;5019159;28;20164;-77
2021/12/04 00:52:37;;;;;;;8.15;3.03;;;;;;;19.16;12.00;97561.63;5014017;28;20033;-76
2021/12/04 00:55:05;;;;;;;7.32;2.40;;;;;;;19.21;12.25;97569.53;5013315;28;20168;-76
2021/12/04 00:57:32;;;;;;;11.15;2.83;;;;;;;19.18;12.10;97567.56;5018641;28;20534;-77
2021/12/04 00:59:58;;;;;;;5.63;2.30;;;;;;;18.89;12.35;97559.91;5019451;28;20037;-77
2021/12/04 01:02:24;;;;;;;5.43;2.15;;;;;;;18.78;12.29;97565.59;5022358;28;20029;-76
2021/12/04 01:04:50;;;;;;;6.43;2.40;;;;;;;18.79;12.35;97560.78;5020018;28;20137;-76
2021/12/04 01:07:17;;;;;;;5.60;1.88;;;;;;;18.79;12.61;97561.59;5022694;28;20502;-76
2021/12/04 01:09:44;;;;;;;10.27;2.33;;;;;;;19.08;12.05;97567.69;5021198;28;20116;-76
2021/12/04 01:12:10;;;;;;;4.10;1.65;;;;;;;18.72;12.19;97563.66;5018036;28;20037;-77
2021/12/04 01:14:37;;;;;;;6.82;1.98;;;;;;;18.86;12.43;97546.81;5022748;28;20033;-76
2021/12/04 01:17:04;;;;;;;6.72;2.55;;;;;;;19.24;11.92;97548.44;5025618;28;20033;-76
2021/12/04 01:19:30;;;;;;;5.45;2.15;;;;;;;19.27;11.94;97544.84;5021507;28;20049;-76
2021/12/04 01:21:57;;;;;;;4.88;2.15;;;;;;;19.24;11.74;97551.22;5018317;28;20425;-77
2021/12/04 01:24:24;;;;;;;4.38;2.15;;;;;;;19.39;11.70;97544.34;5019408;28;20529;-76
2021/12/04 01:26:50;;;;;;;9.55;2.25;;;;;;;19.14;11.91;97544.56;5021284;28;20045;-77
2021/12/04 01:29:17;;;;;;;8.32;2.88;;;;;;;18.97;11.95;97534.41;5020453;28;20389;-77
2021/12/04 01:31:45;;;;;;;6.00;2.25;;;;;;;19.19;12.08;97524.63;5020047;28;20061;-77
2021/12/04 01:34:11;;;;;;;4.28;2.05;;;;;;;19.29;12.12;97531.28;5024760;28;20449;-76
2021/12/04 01:36:38;;;;;;;4.82;2.15;;;;;;;18.79;12.40;97535.78;5014774;28;20026;-77
2021/12/04 01:39:05;;;;;;;4.93;2.03;;;;;;;18.59;12.46;97530.81;5014516;28;20116;-76
2021/12/04 01:41:33;;;;;;;8.98;2.30;;;;;;;18.63;12.61;97531.56;5015999;28;20037;-77
2021/12/04 01:44:00;;;;;;;8.52;2.58;;;;;;;18.91;12.36;97524.94;5018009;28;20092;-77
2021/12/04 01:46:30;;;;;;;5.40;1.95;;;;;;;18.72;12.38;97531.06;5016779;28;20125;-77
2021/12/04 01:48:56;;;;;;;5.03;1.95;;;;;;;18.98;12.21;97524.06;5030693;28;20092;-77
2021/12/04 01:51:23;;;;;;;6.05;1.70;;;;;;;19.10;12.13;97531.88;5033139;28;20029;-77
2021/12/04 01:53:49;;;;;;;6.03;1.65;;;;;;;19.04;12.21;97539.13;5027885;28;20040;-76
2021/12/04 01:56:17;;;;;;;5.32;2.05;;;;;;;19.24;12.00;97529.75;5022910;28;20156;-76
2021/12/04 01:58:43;;;;;;;6.15;1.90;;;;;;;19.32;11.84;97524.91;5028234;28;20037;-76
2021/12/04 02:01:10;;;;;;;5.03;1.60;;;;;;;19.58;11.63;97518.63;5030467;28;20127;-77
2021/12/04 02:03:37;;;;;;;3.47;1.48;;;;;;;19.64;11.48;97514.19;5030298;28;20117;-76
2021/12/04 02:06:04;;;;;;;6.35;1.92;;;;;;;19.93;11.38;97504.22;5024082;28;20175;-76
2021/12/04 02:08:30;;;;;;;5.30;2.00;;;;;;;19.91;11.58;97492.69;5031250;28;20084;-76
2021/12/04 02:10:59;;;;;;;5.97;2.05;;;;;;;19.57;11.83;97491.19;5033676;28;20038;-76
2021/12/04 02:13:26;;;;;;;8.32;2.38;;;;;;;19.56;11.90;97482.06;5031186;28;20034;-76
2021/12/04 02:15:54;;;;;;;6.13;1.73;;;;;;;19.13;12.73;97490.13;5027490;28;20033;-76
2021/12/04 02:18:21;;;;;;;4.32;1.45;;;;;;;18.73;12.68;97481.81;5031861;28;20477;-76
2021/12/04 02:20:51;;;;;;;7.57;2.13;;;;;;;18.51;12.69;97484.78;5031966;28;20041;-76
2021/12/04 02:23:17;;;;;;;2.05;1.45;;;;;;;18.23;12.56;97482.22;5031246;28;20053;-76
2021/12/04 02:25:44;;;;;;;7.45;2.00;;;;;;;18.83;12.58;97470.59;5031883;28;20095;-76
2021/12/04 02:28:12;;;;;;;4.20;2.13;;;;;;;19.17;12.23;97463.03;5031965;28;20046;-76
2021/12/04 02:30:41;;;;;;;4.82;2.00;;;;;;;19.49;11.81;97457.09;5018986;28;20489;-76
2021/12/04 02:33:12;;;;;;;3.42;1.70;;;;;;;19.53;11.70;97440.34;5032252;28;20485;-76
2021/12/04 02:35:45;;;;;;;3.47;1.80;;;;;;;19.54;11.67;97437.13;5023155;28;20030;-76
2021/12/04 02:38:11;;;;;;;7.38;2.28;;;;;;;19.47;11.78;97434.44;5031931;28;20500;-76
2021/12/04 02:40:37;;;;;;;5.20;1.75;;;;;;;19.61;11.51;97437.03;5031465;28;20092;-76
2021/12/04 02:43:04;;;;;;;8.48;2.25;;;;;;;19.62;12.11;97433.06;5029525;28;20116;-76
2021/12/04 02:45:30;;;;;;;7.68;2.30;;;;;;;19.18;11.95;97430.44;5029715;28;20041;-76
2021/12/04 02:47:57;;;;;;;8.48;2.95;;;;;;;18.93;12.36;97424.38;5029178;28;20037;-76
2021/12/04 02:50:23;;;;;;;7.68;2.17;;;;;;;18.88;12.37;97427.63;5029106;28;20037;-76
2021/12/04 02:52:49;;;;;;;5.82;2.08;;;;;;;19.08;12.18;97428.56;5027165;28;20052;-76
2021/12/04 02:55:17;;;;;;;5.45;2.22;;;;;;;19.12;11.95;97418.19;5031146;28;20041;-76
2021/12/04 02:57:44;;;;;;;7.20;2.13;;;;;;;19.21;11.83;97415.69;5030730;28;20148;-75
2021/12/04 03:00:19;;;;;;;4.75;2.08;;;;;;;18.82;12.17;97418.94;5034500;28;20045;-76
2021/12/04 03:02:45;;;;;;;7.72;2.15;;;;;;;18.97;12.10;97414.00;5032306;28;20029;-76
2021/12/04 03:05:12;;;;;;;3.80;1.42;;;;;;;18.73;12.17;97415.06;5030614;28;20041;-76
2021/12/04 03:07:39;;;;;;;7.18;2.13;;;;;;;18.92;12.08;97411.69;5031116;28;20041;-76
2021/12/04 03:10:08;;;;;;;5.82;1.77;;;;;;;18.94;12.10;97414.84;5034420;28;20037;-76
2021/12/04 03:12:36;;;;;;;6.18;2.38;;;;;;;18.67;12.34;97411.19;5035424;28;20501;-76
2021/12/04 03:15:03;;;;;;;4.97;1.90;;;;;;;18.92;11.90;97398.56;5032039;28;20037;-76
2021/12/04 03:17:29;;;;;;;6.43;1.80;;;;;;;19.03;12.08;97399.22;5035616;28;20497;-76
2021/12/04 03:19:55;;;;;;;5.50;1.75;;;;;;;18.80;12.60;97395.53;5036646;28;20068;-76
2021/12/04 03:22:23;;;;;;;5.78;2.22;;;;;;;18.62;12.45;97401.31;5033200;28;20050;-76
2021/12/04 03:24:51;;;;;;;6.07;2.15;;;;;;;18.39;12.54;97401.88;5034570;28;20026;-76
2021/12/04 03:27:18;;;;;;;4.22;1.85;;;;;;;18.23;12.35;97409.19;5036073;28;20113;-76
2021/12/04 03:29:54;;;;;;;4.30;1.50;;;;;;;18.59;12.09;97402.91;5034743;28;20382;-76
2021/12/04 03:32:48;;;;;;;6.38;2.00;;;;;;;19.01;11.89;97398.84;5029048;28;20041;-76
2021/12/04 03:43:10;;;;;;;7.63;2.50;;;;;;;19.59;11.70;97392.13;5034288;28;20029;-76
2021/12/04 03:45:39;;;;;;;5.47;2.10;;;;;;;19.46;11.80;97399.47;5032642;28;20063;-76
2021/12/04 03:48:28;;;;;;;4.45;1.83;;;;;;;19.40;11.97;97403.13;5025837;28;20033;-76
2021/12/04 03:50:54;;;;;;;5.63;2.15;;;;;;;19.42;11.74;97397.97;5025964;28;20477;-75
2021/12/04 03:53:21;;;;;;;6.43;2.33;;;;;;;19.43;11.57;97391.16;5021954;28;20041;-76
2021/12/04 03:55:47;;;;;;;9.02;2.55;;;;;;;19.56;11.55;97401.31;5027929;28;20041;-76
2021/12/04 03:58:13;;;;;;;5.68;2.10;;;;;;;19.66;11.51;97394.00;5017690;28;20045;-76
2021/12/04 04:00:39;;;;;;;5.93;2.13;;;;;;;19.57;11.48;97396.53;5031588;28;20030;-76
2021/12/04 04:03:05;;;;;;;6.07;2.65;;;;;;;19.20;11.68;97406.56;5033007;28;20033;-76
2021/12/04 04:05:31;;;;;;;7.45;2.38;;;;;;;18.68;12.10;97402.41;5034329;28;20041;-76
2021/12/04 04:07:57;;;;;;;4.22;2.00;;;;;;;18.37;12.55;97398.72;5035980;28;20022;-76
2021/12/04 04:10:23;;;;;;;4.40;1.77;;;;;;;17.47;13.17;97401.03;5029363;28;20120;-76
2021/12/04 04:12:49;;;;;;;5.30;1.98;;;;;;;17.32;13.73;97399.56;5025946;28;20025;-76
2021/12/04 04:15:17;;;;;;;6.13;1.92;;;;;;;17.39;13.57;97396.72;5025961;28;20037;-76
2021/12/04 04:17:43;;;;;;;6.82;1.70;;;;;;;17.62;13.20;97397.00;5027613;28;20029;-76
2021/12/04 04:20:13;;;;;;;4.18;1.63;;;;;;;17.93;12.86;97390.41;5032083;28;20065;-76
2021/12/04 04:22:39;;;;;;;4.23;1.80;;;;;;;18.25;12.75;97390.16;5028908;28;20098;-76
2021/12/04 04:25:07;;;;;;;5.53;1.65;;;;;;;18.44;12.99;97389.53;5032383;28;20497;-76
2021/12/04 04:27:33;;;;;;;5.28;1.48;;;;;;;18.26;12.85;97386.94;5020458;28;20065;-76
2021/12/04 04:30:00;;;;;;;3.58;1.55;;;;;;;18.17;12.53;97380.28;5023810;28;20042;-76
2021/12/04 04:32:26;;;;;;;4.38;1.63;;;;;;;18.30;12.65;97378.56;5022034;28;20083;-76
2021/12/04 04:34:55;;;;;;;2.95;1.35;;;;;;;18.53;12.52;97371.19;5024017;28;20049;-76
2021/12/04 04:37:27;;;;;;;2.72;1.40;;;;;;;18.87;12.48;97373.19;5028169;28;20048;-76
2021/12/04 04:40:26;;;;;;;2.47;1.10;;;;;;;18.69;11.92;97369.84;5026595;28;20030;-76
2021/12/04 05:02:06;;;;;;;2.10;1.00;;;;;;;18.79;11.41;97339.13;5024397;28;20461;-76
2021/12/04 05:15:16;;;;;;;2.13;0.85;;;;;;;19.39;10.66;97324.41;5043871;28;20041;-76
2021/12/04 05:20:32;;;;;;;3.30;0.98;;;;;;;19.12;10.98;97331.94;5036841;28;20050;-76
2021/12/04 05:22:59;;;;;;;1.25;0.82;;;;;;;19.31;10.81;97315.34;5035997;28;20129;-75
2021/12/04 05:25:26;;;;;;;1.38;0.90;;;;;;;18.73;11.75;97315.75;5035412;28;20087;-76
2021/12/04 05:27:52;;;;;;;1.80;0.80;;;;;;;18.94;11.00;97309.13;5033049;28;20037;-76
2021/12/04 05:30:18;;;;;;;2.03;1.10;;;;;;;19.15;11.11;97306.84;5027393;28;20457;-76
2021/12/04 05:32:44;;;;;;;2.33;1.10;;;;;;;19.12;11.21;97296.56;5032866;28;20049;-76
2021/12/04 05:35:10;;;;;;;1.65;0.90;;;;;;;19.04;11.13;97306.19;5032151;28;20552;-76
2021/12/04 05:37:36;;;;;;;1.70;0.80;;;;;;;19.09;11.09;97299.41;5030332;28;20025;-76
2021/12/04 05:40:03;;;;;;;2.42;1.00;;;;;;;19.42;10.86;97300.53;5033669;28;20037;-76
2021/12/04 05:42:29;;;;;;;1.38;0.75;;;;;;;19.09;11.16;97299.41;5028486;28;20442;-76
2021/12/04 05:44:56;;;;;;;4.65;1.38;;;;;;;18.67;11.55;97292.38;5029743;28;20033;-76
2021/12/04 05:47:31;;;;;;;1.67;1.27;;;;;;;18.90;11.72;97298.06;5030703;28;20037;-75
2021/12/04 05:50:17;;;;;;;3.60;1.40;;;;;;;18.70;11.75;97297.13;5024251;28;20038;-76
2021/12/04 05:55:18;;;;;;;2.45;1.35;;;;;;;17.64;13.10;97289.13;5023898;28;20045;-76
2021/12/04 05:57:44;;;;;;;3.80;1.33;;;;;;;17.99;12.62;97291.59;5027063;28;20041;-76
2021/12/04 06:00:15;;;;;;;2.45;1.20;;;;;;;18.18;12.50;97285.41;5023260;28;20044;-76
2021/12/04 06:02:42;;;;;;;3.67;1.92;;;;;;;18.13;12.82;97273.97;5027520;28;20045;-76
2021/12/04 06:05:08;;;;;;;3.20;1.30;;;;;;;18.52;12.56;97277.91;5025345;28;20033;-76
2021/12/04 06:07:34;;;;;;;3.08;1.30;;;;;;;18.75;12.38;97268.88;5024279;28;20434;-76
2021/12/04 06:10:00;;;;;;;2.08;1.25;;;;;;;19.41;12.11;97260.75;5025751;28;20038;-76
2021/12/04 06:12:26;;;;;;;2.60;0.90;;;;;;;19.22;12.14;97255.88;5021305;28;20539;-77
2021/12/04 06:14:53;;;;;;;2.22;1.10;;;;;;;19.12;12.44;97252.03;5021088;28;20026;-76
2021/12/04 06:17:20;;;;;;;3.85;1.20;;;;;;;19.27;12.32;97255.38;5016862;28;20037;-76
2021/12/04 06:22:37;;;;;;;4.40;1.15;;;;;;;19.16;12.50;97243.66;5018687;28;20097;-76
2021/12/04 06:25:09;;;;;;;3.47;1.42;;;;;;;19.29;12.96;97242.63;5016557;28;20040;-75
2021/12/04 06:27:36;;;;;;;1.98;1.10;;;;;;;19.42;12.67;97240.03;5018948;28;20025;-75
2021/12/04 06:30:12;;;;;;;2.88;1.30;;;;;;;19.78;12.57;97238.25;5026129;28;20042;-75
2021/12/04 06:32:38;;;;;;;1.63;0.93;;;;;;;19.44;12.50;97242.44;5023879;28;20045;-76
2021/12/04 06:35:11;;;;;;;3.88;1.30;;;;;;;19.96;12.43;97247.06;5025179;28;20025;-75
2021/12/04 06:37:37;;;;;;;2.22;1.33;;;;;;;19.46;12.26;97245.56;5020227;28;20030;-75
2021/12/04 06:40:05;;;;;;;2.97;1.33;;;;;;;20.34;12.21;97244.75;5028609;28;20381;-75
2021/12/04 06:42:31;;;;;;;1.73;0.80;;;;;;;20.53;11.96;97235.59;5024636;28;20042;-76
2021/12/04 06:44:58;;;;;;;2.83;1.17;;;;;;;20.92;11.91;97239.53;5024579;28;20149;-76
2021/12/04 06:47:24;;;;;;;1.88;1.10;;;;;;;21.06;11.50;97230.84;5030893;28;20469;-76
2021/12/04 06:49:54;;;;;;;2.17;0.90;;;;;;;21.20;11.80;97222.94;5031184;28;20030;-76
2021/12/04 06:52:24;;;;;;;2.97;0.90;;;;;;;21.14;11.58;97232.28;5037896;28;20505;-76
2021/12/04 06:54:55;;;;;;;3.38;1.35;;;;;;;21.32;11.29;97215.88;5036745;28;20029;-76
2021/12/04 06:57:22;;;;;;;3.00;1.08;;;;;;;21.44;11.46;97211.59;5035961;28;20030;-76
2021/12/04 06:59:51;;;;;;;1.75;1.23;;;;;;;21.61;11.39;97213.16;5039197;28;20033;-76
2021/12/04 07:02:17;;;;;;;4.35;1.20;;;;;;;21.58;11.37;97212.03;5034366;28;20117;-76
2021/12/04 07:04:43;;;;;;;2.22;1.33;;;;;;;21.61;11.56;97213.94;5036757;28;20032;-76
2021/12/04 07:07:10;;;;;;;4.68;1.20;;;;;;;21.50;11.26;97221.00;5031192;28;20038;-76
2021/12/04 07:09:38;;;;;;;1.83;0.88;;;;;;;21.55;11.78;97215.69;5032385;28;20092;-76
2021/12/04 07:12:04;;;;;;;2.30;1.40;;;;;;;21.48;11.49;97209.50;5038614;28;20029;-76
2021/12/04 07:14:32;;;;;;;2.40;1.38;;;;;;;21.59;11.40;97210.78;5037195;28;20033;-76
2021/12/04 07:17:01;;;;;;;2.35;1.33;;;;;;;21.82;11.50;97207.78;5033471;28;20099;-76
2021/12/04 07:19:27;;;;;;;3.47;1.23;;;;;;;21.72;11.42;97213.66;5036678;28;20073;-75
2021/12/04 07:21:53;;;;;;;2.08;1.20;;;;;;;21.81;11.66;97213.81;5028968;28;20053;-76
2021/12/04 07:24:20;;;;;;;2.65;1.25;;;;;;;21.74;11.73;97202.84;5027060;28;20505;-76
2021/12/04 07:26:46;;;;;;;3.88;1.10;;;;;;;21.74;11.63;97197.25;5023370;28;20109;-76
2021/12/04 07:29:12;;;;;;;2.22;1.10;;;;;;;21.83;11.25;97198.19;5037643;28;20392;-76
2021/12/04 07:31:39;;;;;;;1.45;0.98;;;;;;;21.66;11.29;97201.44;5033148;28;20112;-76
2021/12/04 07:34:06;;;;;;;2.80;0.88;;;;;;;21.86;11.62;97197.34;5034451;28;20441;-76
2021/12/04 07:36:33;;;;;;;2.03;1.23;;;;;;;22.05;11.34;97195.63;5034497;28;20042;-76
2021/12/04 07:39:01;;;;;;;1.58;1.00;;;;;;;22.09;11.32;97189.94;5024941;28;20065;-76
2021/12/04 07:41:28;;;;;;;1.42;1.00;;;;;;;22.37;11.46;97197.50;5036871;28;20036;-76
2021/12/04 07:43:54;;;;;;;2.03;0.90;;;;;;;22.56;11.46;97202.94;5027811;28;20488;-76
2021/12/04 07:46:21;;;;;;;1.73;0.82;;;;;;;22.68;11.07;97193.03;5050501;28;20915;-76
2021/12/04 07:48:47;;;;;;;1.40;0.93;;;;;;;22.46;11.07;97186.47;5033589;28;20484;-76
2021/12/04 07:51:17;;;;;;;1.55;0.93;;;;;;;22.62;11.08;97187.19;5034403;28;20037;-76
2021/12/04 07:53:46;;;;;;;2.58;1.02;;;;;;;22.39;11.21;97183.88;5027556;28;20045;-76
2021/12/04 07:56:16;;;;;;;1.80;1.00;;;;;;;22.81;11.12;97181.81;5030003;28;20425;-76
2021/12/04 07:58:42;;;;;;;2.28;1.05;;;;;;;22.76;10.98;97179.59;5027687;28;20050;-76
2021/12/04 08:01:10;;;;;;;1.88;1.17;;;;;;;22.69;11.19;97180.59;5029780;28;20053;-77
2021/12/04 08:03:36;;;;;;;2.55;1.35;;;;;;;22.68;11.48;97179.78;5023303;28;20540;-76
2021/12/04 08:06:03;;;;;;;2.38;1.52;;;;;;;22.79;11.31;97182.28;5034273;28;20057;-76
2021/12/04 08:08:29;;;;;;;1.88;0.88;;;;;;;22.58;11.63;97174.50;5030234;28;20080;-76
2021/12/04 08:10:55;;;;;;;1.38;0.93;;;;;;;22.88;11.06;97171.19;5028020;28;20034;-76
2021/12/04 08:13:21;;;;;;;2.38;1.00;;;;;;;22.96;11.10;97160.56;5029804;28;20041;-76
2021/12/04 08:15:47;;;;;;;1.42;0.90;;;;;;;23.00;11.16;97170.41;5021910;28;20052;-77
2021/12/04 08:18:13;;;;;;;2.42;1.45;;;;;;;23.04;11.02;97159.88;5025618;28;20048;-76
2021/12/04 08:20:40;;;;;;;1.92;1.00;;;;;;;23.38;10.67;97158.41;5022031;28;20034;-76
2021/12/04 08:23:06;;;;;;;2.47;1.00;;;;;;;23.56;10.86;97156.56;5020875;28;20049;-76
2021/12/04 08:25:33;;;;;;;3.40;1.50;;;;;;;23.73;10.61;97158.00;5019125;28;20038;-76
2021/12/04 08:28:01;;;;;;;3.05;1.33;;;;;;;23.72;10.64;97150.00;5023545;28;20041;-76
2021/12/04 08:30:29;;;;;;;4.45;1.88;;;;;;;23.72;10.98;97159.22;5022302;28;20037;-76
2021/12/04 08:32:57;;;;;;;6.43;3.30;;;;;;;23.65;11.21;97158.66;5021875;28;20500;-77
2021/12/04 08:35:25;;;;;;;6.40;2.70;;;;;;;23.64;11.40;97157.13;5026604;28;20375;-76
2021/12/04 08:37:54;;;;;;;3.95;1.60;;;;;;;23.58;11.17;97151.28;5030612;28;20385;-76
2021/12/04 08:40:21;;;;;;;4.15;2.05;;;;;;;23.76;10.90;97151.44;5025312;28;20033;-76
2021/12/04 08:42:47;;;;;;;7.40;2.55;;;;;;;24.08;10.88;97149.56;5021525;28;20041;-76
2021/12/04 08:45:15;;;;;;;2.53;1.40;;;;;;;24.40;11.35;97158.34;5021501;28;20113;-76
2021/12/04 08:47:42;;;;;;;8.35;2.65;;;;;;;24.84;11.26;97147.84;5022965;28;20041;-76
2021/12/04 08:50:14;;;;;;;11.25;5.50;;;;;;;25.14;11.46;97146.22;5025404;28;20069;-76
2021/12/04 08:52:41;;;;;;;14.98;7.40;;;;;;;25.38;11.20;97142.41;5028752;28;20033;-76
2021/12/04 08:55:09;;;;;;;13.45;6.78;;;;;;;25.63;11.31;97149.00;5023896;28;20109;-76
2021/12/04 08:57:35;;;;;;;10.15;4.25;;;;;;;25.75;10.72;97148.09;5030467;28;20541;-77
2021/12/04 09:00:05;;;;;;;12.55;5.00;;;;;;;25.78;10.88;97149.97;5026185;28;20044;-77
2021/12/04 09:02:31;;;;;;;7.35;3.80;;;;;;;25.80;10.89;97147.47;5030892;28;20068;-77
2021/12/04 09:04:58;;;;;;;6.70;3.72;;;;;;;25.63;11.16;97143.38;5030678;28;20037;-79
2021/12/04 09:07:24;;;;;;;7.15;3.85;;;;;;;25.63;11.59;97146.19;5022099;28;20026;-79
2021/12/04 09:09:54;;;;;;;7.72;3.67;;;;;;;25.26;11.28;97142.53;5024395;28;20030;-78
2021/12/04 09:12:23;;;;;;;13.75;5.82;;;;;;;24.96;12.21;97146.19;5037887;28;20052;-78
2021/12/04 09:14:50;;;;;;;8.60;4.25;;;;;;;25.26;11.87;97143.31;5027155;28;20389;-78
2021/12/04 09:17:18;;;;;;;10.88;5.22;;;;;;;25.64;11.63;97140.13;5032389;28;20539;-78
2021/12/04 09:19:45;;;;;;;14.40;6.38;;;;;;;25.90;11.97;97135.78;5025181;28;20025;-78
2021/12/04 09:22:16;;;;;;;28.40;12.30;;;;;;;26.11;11.87;97134.06;5024681;28;20065;-78
2021/12/04 09:24:45;;;;;;;24.75;11.35;;;;;;;26.32;11.32;97137.94;5027992;28;20040;-79
2021/12/04 09:27:22;;;;;;;27.70;11.18;;;;;;;26.40;11.68;97136.34;5030770;28;20034;-78
2021/12/04 09:30:16;;;;;;;29.30;11.98;;;;;;;26.33;11.43;97128.22;5028916;28;20033;-78
2021/12/04 10:05:35;;;;;;;10.63;5.00;;;;;;;27.00;10.41;97080.00;5018745;28;20041;-78
2021/12/04 10:33:27;;;;;;;10.75;3.65;;;;;;;26.07;11.12;97049.00;5023707;28;20620;-78
2021/12/04 10:35:53;;;;;;;2.55;1.25;;;;;;;26.29;10.12;97038.34;5021584;28;20030;-78
2021/12/04 10:38:26;;;;;;;6.80;2.63;;;;;;;26.62;10.26;97029.94;5023279;28;20034;-78
2021/12/04 10:40:54;;;;;;;48.03;11.75;;;;;;;27.14;11.01;97028.56;5027413;28;20033;-78
2021/12/04 10:43:27;;;;;;;9.07;3.00;;;;;;;27.03;9.76;97039.56;5021257;28;20437;-78
2021/12/04 10:45:58;;;;;;;4.82;2.03;;;;;;;26.66;9.48;97033.34;5015139;28;20045;-78
2021/12/04 10:48:29;;;;;;;3.10;1.45;;;;;;;26.54;9.33;97021.03;5019453;28;20030;-78
2021/12/04 10:51:18;;;;;;;5.93;1.85;;;;;;;25.94;10.01;97017.47;5026463;28;20489;-78
2021/12/04 10:53:49;;;;;;;5.38;1.77;;;;;;;26.27;9.90;97018.34;5023905;28;20426;-78
2021/12/04 10:56:52;;;;;;;5.70;2.97;;;;;;;26.15;10.08;97010.09;5021499;28;20081;-78
2021/12/04 10:59:26;;;;;;;5.80;2.50;;;;;;;26.45;10.67;97020.31;5020373;28;20079;-78
2021/12/04 11:04:47;;;;;;;5.45;2.55;;;;;;;26.94;10.57;97011.47;5030145;28;20038;-78
2021/12/04 11:19:00;;;;;;;3.85;1.65;;;;;;;24.58;10.29;96978.84;5040642;28;20060;-78
2021/12/04 11:21:56;;;;;;;4.45;1.58;;;;;;;24.31;10.55;96973.16;5026315;28;20051;-78
2021/12/04 11:27:50;;;;;;;5.53;1.98;;;;;;;25.36;9.54;96965.06;4988499;28;20049;-78
2021/12/04 11:38:40;;;;;;;5.07;2.17;;;;;;;26.31;10.16;96959.84;5029834;28;20052;-78
2021/12/04 11:43:53;;;;;;;4.10;1.50;;;;;;;26.48;9.24;96944.13;5028738;28;20061;-78
2021/12/04 11:46:29;;;;;;;3.75;1.60;;;;;;;26.30;10.41;96937.81;5022414;28;20148;-78
2021/12/04 11:49:00;;;;;;;3.55;1.75;;;;;;;26.69;9.66;96936.66;5031024;28;20029;-79
2021/12/04 11:51:27;;;;;;;2.88;1.02;;;;;;;26.82;9.75;96939.25;5025393;28;20042;-78
2021/12/04 11:53:55;;;;;;;3.08;1.38;;;;;;;26.55;9.93;96932.53;5027356;28;20083;-78
2021/12/04 11:56:28;;;;;;;2.10;1.10;;;;;;;26.84;10.19;96934.69;5029580;28;20428;-78
2021/12/04 11:58:56;;;;;;;2.67;1.40;;;;;;;27.27;9.44;96925.59;5027185;28;20489;-78
2021/12/04 12:01:31;;;;;;;5.47;2.22;;;;;;;27.58;9.38;96933.63;5030887;28;20498;-78
2021/12/04 12:04:09;;;;;;;13.00;5.03;;;;;;;27.77;9.06;96923.69;5030402;28;20481;-79
2021/12/04 12:06:42;;;;;;;3.40;1.30;;;;;;;26.33;9.31;96925.59;5028530;28;20072;-79
2021/12/04 12:09:15;;;;;;;2.33;1.25;;;;;;;25.80;10.47;96919.69;5024231;28;20028;-78
2021/12/04 12:11:56;;;;;;;1.75;0.95;;;;;;;26.32;10.00;96912.78;5033215;28;20029;-78
2021/12/04 12:14:37;;;;;;;2.60;1.35;;;;;;;26.35;10.46;96906.97;5025194;28;20083;-77
2021/12/04 12:17:04;;;;;;;1.52;1.00;;;;;;;26.57;9.93;96899.03;5027942;28;20041;-77
2021/12/04 12:19:43;;;;;;;3.40;1.38;;;;;;;26.71;10.28;96889.88;5028710;28;20563;-78
2021/12/04 12:22:36;;;;;;;5.10;2.80;;;;;;;27.13;9.43;96898.16;5026362;28;20049;-77
2021/12/04 12:25:24;;;;;;;11.07;5.68;;;;;;;27.59;9.57;96889.28;5029188;28;20057;-77
2021/12/04 12:31:47;;;;;;;4.32;1.92;;;;;;;27.45;9.24;96893.66;5030634;28;20032;-78
2021/12/04 12:33:42;;;;;;;5.53;2.58;;;;;;;27.33;9.84;96881.38;5033145;28;20535;-78
2021/12/04 12:36:19;;;;;;;7.25;3.70;;;;;;;27.58;10.00;96887.72;5025179;28;20040;-77
2021/12/04 12:39:04;;;;;;;4.95;2.58;;;;;;;27.46;9.63;96877.50;5034819;28;20030;-77
2021/12/04 12:41:34;;;;;;;3.10;1.60;;;;;;;26.92;9.73;96884.41;5034965;28;20034;-77
2021/12/04 12:44:28;;;;;;;3.25;1.50;;;;;;;26.70;10.27;96885.47;5020661;28;20497;-78
2021/12/04 12:47:04;;;;;;;3.50;1.33;;;;;;;26.50;9.93;96881.72;5035358;28;20076;-77
2021/12/04 12:49:34;;;;;;;5.10;2.08;;;;;;;26.46;10.10;96890.34;5035082;28;20204;-78
2021/12/04 12:52:06;;;;;;;6.15;2.33;;;;;;;26.26;10.03;96880.91;5034544;28;20087;-78
2021/12/04 12:54:32;;;;;;;6.70;2.65;;;;;;;26.41;10.36;96888.19;5035351;28;20029;-78
2021/12/04 12:57:02;;;;;;;4.05;2.15;;;;;;;26.23;10.38;96888.31;5034611;28;20097;-78
2021/12/04 12:59:38;;;;;;;2.28;1.20;;;;;;;26.27;10.24;96879.69;5026923;28;20513;-77
2021/12/04 13:13:35;;;;;;;2.40;1.30;;;;;;;25.19;9.92;96875.94;5023396;28;20049;-78
2021/12/04 13:16:13;;;;;;;2.33;1.23;;;;;;;25.27;10.47;96872.34;5024153;28;20492;-79
2021/12/04 13:18:39;;;;;;;2.65;1.42;;;;;;;25.45;10.69;96865.94;5018786;28;20133;-80
2021/12/04 13:21:09;;;;;;;2.67;1.38;;;;;;;25.48;10.45;96873.44;5019458;28;20047;-79
2021/12/04 13:23:37;;;;;;;2.28;1.30;;;;;;;25.64;10.19;96864.63;5017417;28;20041;-79
2021/12/04 13:26:10;;;;;;;3.00;1.90;;;;;;;25.56;10.41;96871.03;5023666;28;20042;-79
2021/12/04 13:28:39;;;;;;;3.72;1.40;;;;;;;25.61;9.71;96865.56;5023972;28;20044;-80
2021/12/04 13:31:06;;;;;;;4.50;1.35;;;;;;;25.48;10.32;96867.81;5025736;28;20107;-79
2021/12/04 13:33:36;;;;;;;2.25;1.35;;;;;;;25.62;10.01;96875.56;5025446;28;20042;-80
2021/12/04 13:36:03;;;;;;;3.42;1.90;;;;;;;25.76;9.95;96866.47;5028268;28;20038;-79
2021/12/04 13:38:29;;;;;;;5.72;2.22;;;;;;;25.91;10.29;96866.53;5024135;28;20469;-80
2021/12/04 13:40:56;;;;;;;3.72;1.88;;;;;;;25.62;9.75;96858.69;5025609;28;20033;-81
2021/12/04 13:43:23;;;;;;;7.63;2.88;;;;;;;25.71;9.58;96869.13;5025272;28;20026;-81
2021/12/04 13:46:01;;;;;;;5.03;2.38;;;;;;;25.92;10.07;96871.72;5020218;28;20112;-80
2021/12/04 13:48:29;;;;;;;8.13;2.88;;;;;;;25.96;10.02;96875.13;5027315;28;20025;-80
2021/12/04 13:50:55;;;;;;;3.53;2.05;;;;;;;25.91;10.12;96872.16;5017295;28;20037;-80
2021/12/04 13:53:26;;;;;;;2.78;1.92;;;;;;;25.91;9.86;96872.94;5022689;28;20034;-79
2021/12/04 13:55:54;;;;;;;;;;;;;;;25.71;9.18;96875.53;5020328;28;20071;-79
2021/12/04 13:58:22;;;;;;;3.65;1.45;;;;;;;26.13;9.50;96883.97;5028169;28;20039;-79
2021/12/04 14:00:48;;;;;;;3.97;2.08;;;;;;;26.16;9.61;96868.19;5032053;28;20025;-79
2021/12/04 14:03:21;;;;;;;4.57;1.80;;;;;;;25.92;10.24;96884.97;5028670;28;20039;-80
2021/12/04 14:05:47;;;;;;;5.38;2.42;;;;;;;25.98;9.78;96883.84;5026474;28;20082;-81
2021/12/04 14:08:13;;;;;;;5.57;2.60;;;;;;;25.87;9.74;96885.63;5030207;28;20025;-80
2021/12/04 14:10:42;;;;;;;6.80;3.15;;;;;;;25.78;9.64;96882.84;5027492;28;20091;-80
2021/12/04 14:13:11;;;;;;;7.38;3.10;;;;;;;25.79;10.09;96882.38;5027011;28;20037;-80
2021/12/04 14:15:41;;;;;;;7.30;3.28;;;;;;;25.73;9.43;96883.47;5024883;28;20033;-81
2021/12/04 14:18:10;;;;;;;11.85;2.75;;;;;;;25.41;10.28;96876.53;5020184;28;20042;-80
2021/12/04 14:20:39;;;;;;;4.70;2.17;;;;;;;25.33;10.47;96880.91;5021794;28;20026;-80
2021/12/04 14:23:05;;;;;;;4.53;2.33;;;;;;;25.76;10.21;96885.34;5017788;28;20096;-80
2021/12/04 14:25:31;;;;;;;6.07;2.50;;;;;;;25.57;10.24;96887.44;5020079;28;20038;-79